Kingston, Louisiana
Current Conditions -  °F | °C
As of 2:29 AM on Sunday 23 Nov 2014 (Local Time) from KSHV Reporting Station
Light Rain Light Rain  
Wind Chill: 63°   Ceiling: 400
Heat Index: 63°   Visibility: 3mi
Dew Point: 61°   Wind: 7mph
Humidity: 93%   Direction: 130°SE
Pressure: 29.69"   Gusts: NA
Location:  32.117°N, 93.8044°W
Report Text: KSHV 230829Z 13006KT 3SM -RA BR OVC004 17/16 A2969 RMK AO2 CIG 002V008 P0002 T01720161
Loading
Personal Weather Stations






























Interactive Weather Map New forecast layout! Learn more

10-Day Weather Forecast

Advertisements
Track Severe Weather on mobile